sensor_id;sensor_type;location;lat;lon;timestamp;P1;durP1;ratioP1;P2;durP2;ratioP2
15936;SDS011;9163;48.818;8.976;2022-10-17T00:01:48;6.00;;;2.37;;
15936;SDS011;9163;48.818;8.976;2022-10-17T00:04:15;6.87;;;2.67;;
15936;SDS011;9163;48.818;8.976;2022-10-17T00:06:42;5.50;;;2.73;;
15936;SDS011;9163;48.818;8.976;2022-10-17T00:09:09;5.80;;;2.33;;
15936;SDS011;9163;48.818;8.976;2022-10-17T00:11:38;5.20;;;2.53;;
15936;SDS011;9163;48.818;8.976;2022-10-17T00:14:05;7.57;;;2.63;;
15936;SDS011;9163;48.818;8.976;2022-10-17T00:16:34;8.67;;;2.57;;
15936;SDS011;9163;48.818;8.976;2022-10-17T00:19:02;4.30;;;2.40;;
15936;SDS011;9163;48.818;8.976;2022-10-17T00:21:30;4.83;;;2.57;;
15936;SDS011;9163;48.818;8.976;2022-10-17T00:23:57;5.83;;;2.53;;
15936;SDS011;9163;48.818;8.976;2022-10-17T00:26:25;5.07;;;2.50;;
15936;SDS011;9163;48.818;8.976;2022-10-17T00:28:54;4.37;;;2.33;;
15936;SDS011;9163;48.818;8.976;2022-10-17T00:31:22;6.53;;;2.30;;
15936;SDS011;9163;48.818;8.976;2022-10-17T00:33:50;4.67;;;2.30;;
15936;SDS011;9163;48.818;8.976;2022-10-17T00:36:18;5.20;;;2.50;;
15936;SDS011;9163;48.818;8.976;2022-10-17T00:38:48;4.13;;;2.23;;
15936;SDS011;9163;48.818;8.976;2022-10-17T00:41:18;5.57;;;2.60;;
15936;SDS011;9163;48.818;8.976;2022-10-17T00:43:49;3.53;;;2.40;;
15936;SDS011;9163;48.818;8.976;2022-10-17T00:46:19;4.30;;;2.67;;
15936;SDS011;9163;48.818;8.976;2022-10-17T00:48:47;6.53;;;2.70;;
15936;SDS011;9163;48.818;8.976;2022-10-17T00:51:16;5.30;;;2.70;;
15936;SDS011;9163;48.818;8.976;2022-10-17T00:53:46;4.97;;;2.80;;
15936;SDS011;9163;48.818;8.976;2022-10-17T00:56:14;3.33;;;2.47;;
15936;SDS011;9163;48.818;8.976;2022-10-17T00:58:42;4.83;;;2.60;;
15936;SDS011;9163;48.818;8.976;2022-10-17T01:01:09;5.37;;;2.37;;
15936;SDS011;9163;48.818;8.976;2022-10-17T01:03:38;5.93;;;2.23;;
15936;SDS011;9163;48.818;8.976;2022-10-17T01:06:05;4.50;;;2.47;;
15936;SDS011;9163;48.818;8.976;2022-10-17T01:08:32;3.23;;;2.50;;
15936;SDS011;9163;48.818;8.976;2022-10-17T01:11:00;4.23;;;2.70;;
15936;SDS011;9163;48.818;8.976;2022-10-17T01:13:36;3.10;;;2.13;;
15936;SDS011;9163;48.818;8.976;2022-10-17T01:16:08;4.27;;;2.30;;
15936;SDS011;9163;48.818;8.976;2022-10-17T01:18:44;5.27;;;2.57;;
15936;SDS011;9163;48.818;8.976;2022-10-17T01:21:24;4.13;;;2.93;;
15936;SDS011;9163;48.818;8.976;2022-10-17T01:26:54;4.00;;;2.70;;
15936;SDS011;9163;48.818;8.976;2022-10-17T01:29:49;5.13;;;2.87;;
15936;SDS011;9163;48.818;8.976;2022-10-17T01:32:27;4.43;;;2.77;;
15936;SDS011;9163;48.818;8.976;2022-10-17T01:35:01;3.77;;;2.50;;
15936;SDS011;9163;48.818;8.976;2022-10-17T01:37:33;6.07;;;2.60;;
15936;SDS011;9163;48.818;8.976;2022-10-17T01:40:06;4.90;;;2.77;;
15936;SDS011;9163;48.818;8.976;2022-10-17T01:42:40;4.03;;;2.90;;
15936;SDS011;9163;48.818;8.976;2022-10-17T01:45:13;5.90;;;2.63;;
15936;SDS011;9163;48.818;8.976;2022-10-17T01:47:46;5.70;;;2.87;;
15936;SDS011;9163;48.818;8.976;2022-10-17T01:50:17;5.07;;;2.70;;
15936;SDS011;9163;48.818;8.976;2022-10-17T01:52:49;7.03;;;2.60;;
15936;SDS011;9163;48.818;8.976;2022-10-17T01:55:19;3.30;;;2.50;;
15936;SDS011;9163;48.818;8.976;2022-10-17T01:57:50;4.00;;;2.40;;
15936;SDS011;9163;48.818;8.976;2022-10-17T02:00:21;4.93;;;2.97;;
15936;SDS011;9163;48.818;8.976;2022-10-17T02:02:52;5.43;;;2.93;;
15936;SDS011;9163;48.818;8.976;2022-10-17T02:05:23;5.77;;;2.90;;
15936;SDS011;9163;48.818;8.976;2022-10-17T02:07:54;5.03;;;2.50;;
15936;SDS011;9163;48.818;8.976;2022-10-17T02:10:24;4.30;;;2.70;;
15936;SDS011;9163;48.818;8.976;2022-10-17T02:12:58;4.07;;;2.80;;
15936;SDS011;9163;48.818;8.976;2022-10-17T02:15:40;3.70;;;2.60;;
15936;SDS011;9163;48.818;8.976;2022-10-17T02:18:21;7.00;;;2.83;;
15936;SDS011;9163;48.818;8.976;2022-10-17T02:21:00;6.17;;;2.90;;
15936;SDS011;9163;48.818;8.976;2022-10-17T02:23:34;4.47;;;2.50;;
15936;SDS011;9163;48.818;8.976;2022-10-17T02:26:09;4.83;;;2.70;;
15936;SDS011;9163;48.818;8.976;2022-10-17T02:28:43;7.40;;;3.00;;
15936;SDS011;9163;48.818;8.976;2022-10-17T02:31:18;4.33;;;2.40;;
15936;SDS011;9163;48.818;8.976;2022-10-17T02:33:51;3.50;;;2.43;;
15936;SDS011;9163;48.818;8.976;2022-10-17T02:36:22;3.63;;;3.00;;
15936;SDS011;9163;48.818;8.976;2022-10-17T02:38:54;4.10;;;2.33;;
15936;SDS011;9163;48.818;8.976;2022-10-17T02:41:24;3.50;;;2.53;;
15936;SDS011;9163;48.818;8.976;2022-10-17T02:43:51;7.13;;;2.93;;
15936;SDS011;9163;48.818;8.976;2022-10-17T02:46:20;5.53;;;2.60;;
15936;SDS011;9163;48.818;8.976;2022-10-17T02:48:49;6.17;;;2.63;;
15936;SDS011;9163;48.818;8.976;2022-10-17T02:51:23;5.23;;;3.00;;
15936;SDS011;9163;48.818;8.976;2022-10-17T02:53:59;4.10;;;2.63;;
15936;SDS011;9163;48.818;8.976;2022-10-17T02:56:32;4.83;;;2.97;;
15936;SDS011;9163;48.818;8.976;2022-10-17T02:59:05;4.43;;;2.80;;
15936;SDS011;9163;48.818;8.976;2022-10-17T03:01:36;4.77;;;2.60;;
15936;SDS011;9163;48.818;8.976;2022-10-17T03:04:06;6.50;;;3.10;;
15936;SDS011;9163;48.818;8.976;2022-10-17T03:06:34;4.50;;;3.00;;
15936;SDS011;9163;48.818;8.976;2022-10-17T03:09:02;4.70;;;2.83;;
15936;SDS011;9163;48.818;8.976;2022-10-17T03:11:29;5.37;;;2.90;;
15936;SDS011;9163;48.818;8.976;2022-10-17T03:13:56;5.57;;;2.97;;
15936;SDS011;9163;48.818;8.976;2022-10-17T03:16:24;7.17;;;2.60;;
15936;SDS011;9163;48.818;8.976;2022-10-17T03:18:51;4.00;;;2.70;;
15936;SDS011;9163;48.818;8.976;2022-10-17T03:21:19;2.90;;;2.60;;
15936;SDS011;9163;48.818;8.976;2022-10-17T03:23:46;4.80;;;2.97;;
15936;SDS011;9163;48.818;8.976;2022-10-17T03:26:14;4.93;;;2.90;;
15936;SDS011;9163;48.818;8.976;2022-10-17T03:28:41;4.97;;;3.00;;
15936;SDS011;9163;48.818;8.976;2022-10-17T03:31:08;4.20;;;2.80;;
15936;SDS011;9163;48.818;8.976;2022-10-17T03:33:36;4.07;;;2.87;;
15936;SDS011;9163;48.818;8.976;2022-10-17T03:36:04;3.07;;;2.77;;
15936;SDS011;9163;48.818;8.976;2022-10-17T03:38:34;4.77;;;2.80;;
15936;SDS011;9163;48.818;8.976;2022-10-17T03:41:01;6.13;;;3.30;;
15936;SDS011;9163;48.818;8.976;2022-10-17T03:43:29;7.23;;;3.00;;
15936;SDS011;9163;48.818;8.976;2022-10-17T03:45:57;7.47;;;3.07;;
15936;SDS011;9163;48.818;8.976;2022-10-17T03:48:25;4.27;;;3.10;;
15936;SDS011;9163;48.818;8.976;2022-10-17T03:50:57;4.50;;;3.17;;
15936;SDS011;9163;48.818;8.976;2022-10-17T03:53:24;5.70;;;3.30;;
15936;SDS011;9163;48.818;8.976;2022-10-17T03:55:53;7.80;;;3.60;;
15936;SDS011;9163;48.818;8.976;2022-10-17T03:58:20;7.37;;;3.30;;
15936;SDS011;9163;48.818;8.976;2022-10-17T04:00:47;7.33;;;3.77;;
15936;SDS011;9163;48.818;8.976;2022-10-17T04:03:14;6.03;;;3.10;;
15936;SDS011;9163;48.818;8.976;2022-10-17T04:05:42;6.33;;;3.20;;
15936;SDS011;9163;48.818;8.976;2022-10-17T04:08:09;5.33;;;3.00;;
15936;SDS011;9163;48.818;8.976;2022-10-17T04:10:36;6.67;;;2.90;;
15936;SDS011;9163;48.818;8.976;2022-10-17T04:13:04;8.20;;;3.10;;
15936;SDS011;9163;48.818;8.976;2022-10-17T04:15:32;7.53;;;3.20;;
15936;SDS011;9163;48.818;8.976;2022-10-17T04:17:59;4.60;;;3.07;;
15936;SDS011;9163;48.818;8.976;2022-10-17T04:20:26;8.17;;;3.30;;
15936;SDS011;9163;48.818;8.976;2022-10-17T04:22:53;8.23;;;3.17;;
15936;SDS011;9163;48.818;8.976;2022-10-17T04:25:20;9.10;;;3.47;;
15936;SDS011;9163;48.818;8.976;2022-10-17T04:27:47;5.13;;;2.80;;
15936;SDS011;9163;48.818;8.976;2022-10-17T04:30:16;5.50;;;3.10;;
15936;SDS011;9163;48.818;8.976;2022-10-17T04:32:43;6.00;;;3.00;;
15936;SDS011;9163;48.818;8.976;2022-10-17T04:35:10;4.97;;;2.80;;
15936;SDS011;9163;48.818;8.976;2022-10-17T04:37:37;5.73;;;3.30;;
15936;SDS011;9163;48.818;8.976;2022-10-17T04:40:05;5.47;;;2.83;;
15936;SDS011;9163;48.818;8.976;2022-10-17T04:42:33;4.60;;;3.10;;
15936;SDS011;9163;48.818;8.976;2022-10-17T04:45:00;7.33;;;3.30;;
15936;SDS011;9163;48.818;8.976;2022-10-17T04:47:29;6.83;;;3.00;;
15936;SDS011;9163;48.818;8.976;2022-10-17T04:49:57;7.07;;;3.10;;
15936;SDS011;9163;48.818;8.976;2022-10-17T04:52:24;6.80;;;3.30;;
15936;SDS011;9163;48.818;8.976;2022-10-17T04:54:51;7.47;;;3.00;;
15936;SDS011;9163;48.818;8.976;2022-10-17T04:57:18;5.37;;;3.10;;
15936;SDS011;9163;48.818;8.976;2022-10-17T04:59:46;5.97;;;3.60;;
15936;SDS011;9163;48.818;8.976;2022-10-17T05:02:13;7.77;;;3.13;;
15936;SDS011;9163;48.818;8.976;2022-10-17T05:04:41;7.70;;;3.37;;
15936;SDS011;9163;48.818;8.976;2022-10-17T05:07:08;6.20;;;2.77;;
15936;SDS011;9163;48.818;8.976;2022-10-17T05:09:36;5.63;;;3.23;;
15936;SDS011;9163;48.818;8.976;2022-10-17T05:12:03;5.23;;;3.20;;
15936;SDS011;9163;48.818;8.976;2022-10-17T05:14:30;4.97;;;3.20;;
15936;SDS011;9163;48.818;8.976;2022-10-17T05:16:57;8.00;;;3.33;;
15936;SDS011;9163;48.818;8.976;2022-10-17T05:19:24;7.23;;;3.40;;
15936;SDS011;9163;48.818;8.976;2022-10-17T05:21:53;5.23;;;3.13;;
15936;SDS011;9163;48.818;8.976;2022-10-17T05:24:20;6.93;;;3.10;;
15936;SDS011;9163;48.818;8.976;2022-10-17T05:26:48;6.57;;;3.13;;
15936;SDS011;9163;48.818;8.976;2022-10-17T05:29:16;3.23;;;2.90;;
15936;SDS011;9163;48.818;8.976;2022-10-17T05:31:43;6.53;;;3.20;;
15936;SDS011;9163;48.818;8.976;2022-10-17T05:34:10;5.47;;;3.07;;
15936;SDS011;9163;48.818;8.976;2022-10-17T05:36:37;5.60;;;3.30;;
15936;SDS011;9163;48.818;8.976;2022-10-17T05:39:06;6.30;;;3.60;;
15936;SDS011;9163;48.818;8.976;2022-10-17T05:41:33;10.07;;;8.20;;
15936;SDS011;9163;48.818;8.976;2022-10-17T05:44:00;7.63;;;4.13;;
15936;SDS011;9163;48.818;8.976;2022-10-17T05:46:28;8.23;;;3.33;;
15936;SDS011;9163;48.818;8.976;2022-10-17T05:48:55;8.57;;;4.40;;
15936;SDS011;9163;48.818;8.976;2022-10-17T05:51:22;5.53;;;3.43;;
15936;SDS011;9163;48.818;8.976;2022-10-17T05:53:50;6.37;;;3.50;;
15936;SDS011;9163;48.818;8.976;2022-10-17T05:56:18;6.57;;;3.23;;
15936;SDS011;9163;48.818;8.976;2022-10-17T05:58:46;5.87;;;3.10;;
15936;SDS011;9163;48.818;8.976;2022-10-17T06:01:13;5.00;;;3.43;;
15936;SDS011;9163;48.818;8.976;2022-10-17T06:03:40;8.13;;;3.87;;
15936;SDS011;9163;48.818;8.976;2022-10-17T06:06:08;4.07;;;3.00;;
15936;SDS011;9163;48.818;8.976;2022-10-17T06:08:37;5.17;;;3.07;;
15936;SDS011;9163;48.818;8.976;2022-10-17T06:11:04;4.53;;;3.20;;
15936;SDS011;9163;48.818;8.976;2022-10-17T06:13:33;6.50;;;3.13;;
15936;SDS011;9163;48.818;8.976;2022-10-17T06:16:00;4.77;;;3.00;;
15936;SDS011;9163;48.818;8.976;2022-10-17T06:18:28;5.70;;;2.87;;
15936;SDS011;9163;48.818;8.976;2022-10-17T06:21:00;5.30;;;2.70;;
15936;SDS011;9163;48.818;8.976;2022-10-17T06:23:28;4.67;;;2.97;;
15936;SDS011;9163;48.818;8.976;2022-10-17T06:25:56;5.93;;;3.10;;
15936;SDS011;9163;48.818;8.976;2022-10-17T06:28:25;4.67;;;3.00;;
15936;SDS011;9163;48.818;8.976;2022-10-17T06:30:53;7.33;;;3.53;;
15936;SDS011;9163;48.818;8.976;2022-10-17T06:33:21;4.67;;;2.87;;
15936;SDS011;9163;48.818;8.976;2022-10-17T06:35:51;5.60;;;2.63;;
15936;SDS011;9163;48.818;8.976;2022-10-17T06:38:19;4.33;;;2.80;;
15936;SDS011;9163;48.818;8.976;2022-10-17T06:40:47;5.47;;;2.93;;
15936;SDS011;9163;48.818;8.976;2022-10-17T06:43:14;7.73;;;2.90;;
15936;SDS011;9163;48.818;8.976;2022-10-17T06:45:41;7.47;;;3.07;;
15936;SDS011;9163;48.818;8.976;2022-10-17T06:48:10;4.17;;;2.60;;
15936;SDS011;9163;48.818;8.976;2022-10-17T06:50:37;6.33;;;2.77;;
15936;SDS011;9163;48.818;8.976;2022-10-17T06:53:04;6.70;;;3.43;;
15936;SDS011;9163;48.818;8.976;2022-10-17T06:55:31;6.90;;;3.30;;
15936;SDS011;9163;48.818;8.976;2022-10-17T06:57:58;7.00;;;3.13;;
15936;SDS011;9163;48.818;8.976;2022-10-17T07:00:25;5.40;;;2.80;;
15936;SDS011;9163;48.818;8.976;2022-10-17T07:02:53;4.23;;;2.83;;
15936;SDS011;9163;48.818;8.976;2022-10-17T07:05:22;7.07;;;3.13;;
15936;SDS011;9163;48.818;8.976;2022-10-17T07:07:49;5.53;;;2.53;;
15936;SDS011;9163;48.818;8.976;2022-10-17T07:10:16;8.43;;;3.07;;
15936;SDS011;9163;48.818;8.976;2022-10-17T07:12:43;7.60;;;3.03;;
15936;SDS011;9163;48.818;8.976;2022-10-17T07:15:10;8.60;;;2.70;;
15936;SDS011;9163;48.818;8.976;2022-10-17T07:17:38;9.83;;;2.87;;
15936;SDS011;9163;48.818;8.976;2022-10-17T07:20:05;3.87;;;2.60;;
15936;SDS011;9163;48.818;8.976;2022-10-17T07:22:34;5.57;;;3.00;;
15936;SDS011;9163;48.818;8.976;2022-10-17T07:25:02;5.97;;;2.40;;
15936;SDS011;9163;48.818;8.976;2022-10-17T07:27:30;3.83;;;2.50;;
15936;SDS011;9163;48.818;8.976;2022-10-17T07:29:57;3.83;;;2.47;;
15936;SDS011;9163;48.818;8.976;2022-10-17T07:32:24;5.13;;;2.70;;
15936;SDS011;9163;48.818;8.976;2022-10-17T07:34:51;4.53;;;2.60;;
15936;SDS011;9163;48.818;8.976;2022-10-17T07:37:18;5.97;;;2.50;;
15936;SDS011;9163;48.818;8.976;2022-10-17T07:39:47;4.30;;;2.60;;
15936;SDS011;9163;48.818;8.976;2022-10-17T07:42:14;4.63;;;2.53;;
15936;SDS011;9163;48.818;8.976;2022-10-17T07:44:41;6.03;;;2.40;;
15936;SDS011;9163;48.818;8.976;2022-10-17T07:47:11;4.83;;;2.60;;
15936;SDS011;9163;48.818;8.976;2022-10-17T07:49:38;4.37;;;2.50;;
15936;SDS011;9163;48.818;8.976;2022-10-17T07:52:08;4.23;;;2.07;;
15936;SDS011;9163;48.818;8.976;2022-10-17T07:54:36;4.40;;;2.10;;
15936;SDS011;9163;48.818;8.976;2022-10-17T07:57:04;3.90;;;2.30;;
15936;SDS011;9163;48.818;8.976;2022-10-17T07:59:32;3.80;;;2.20;;
15936;SDS011;9163;48.818;8.976;2022-10-17T08:02:00;4.07;;;2.30;;
15936;SDS011;9163;48.818;8.976;2022-10-17T08:04:27;4.00;;;1.90;;
15936;SDS011;9163;48.818;8.976;2022-10-17T08:06:54;3.13;;;2.30;;
15936;SDS011;9163;48.818;8.976;2022-10-17T08:09:22;10.23;;;2.33;;
15936;SDS011;9163;48.818;8.976;2022-10-17T08:11:49;4.13;;;2.30;;
15936;SDS011;9163;48.818;8.976;2022-10-17T08:14:17;3.73;;;2.30;;
15936;SDS011;9163;48.818;8.976;2022-10-17T08:16:44;5.20;;;2.07;;
15936;SDS011;9163;48.818;8.976;2022-10-17T08:19:12;6.77;;;2.47;;
15936;SDS011;9163;48.818;8.976;2022-10-17T08:21:39;3.87;;;2.10;;
15936;SDS011;9163;48.818;8.976;2022-10-17T08:24:06;4.93;;;2.60;;
15936;SDS011;9163;48.818;8.976;2022-10-17T08:26:34;3.77;;;2.23;;
15936;SDS011;9163;48.818;8.976;2022-10-17T08:29:01;4.63;;;2.00;;
15936;SDS011;9163;48.818;8.976;2022-10-17T08:31:29;4.97;;;2.40;;
15936;SDS011;9163;48.818;8.976;2022-10-17T08:33:56;2.97;;;2.10;;
15936;SDS011;9163;48.818;8.976;2022-10-17T08:36:24;2.90;;;2.07;;
15936;SDS011;9163;48.818;8.976;2022-10-17T08:38:53;5.93;;;2.20;;
15936;SDS011;9163;48.818;8.976;2022-10-17T08:41:24;5.30;;;2.00;;
15936;SDS011;9163;48.818;8.976;2022-10-17T08:44:13;3.83;;;2.00;;
15936;SDS011;9163;48.818;8.976;2022-10-17T08:46:46;3.80;;;2.10;;
15936;SDS011;9163;48.818;8.976;2022-10-17T08:49:24;4.43;;;1.97;;
15936;SDS011;9163;48.818;8.976;2022-10-17T08:52:01;6.37;;;2.40;;
15936;SDS011;9163;48.818;8.976;2022-10-17T08:54:34;5.50;;;1.90;;
15936;SDS011;9163;48.818;8.976;2022-10-17T08:57:09;6.87;;;2.10;;
15936;SDS011;9163;48.818;8.976;2022-10-17T08:59:38;4.83;;;2.00;;
15936;SDS011;9163;48.818;8.976;2022-10-17T09:02:14;4.60;;;2.00;;
15936;SDS011;9163;48.818;8.976;2022-10-17T09:05:13;5.17;;;2.03;;
15936;SDS011;9163;48.818;8.976;2022-10-17T09:08:08;5.57;;;2.73;;
15936;SDS011;9163;48.818;8.976;2022-10-17T09:10:46;5.57;;;2.10;;
15936;SDS011;9163;48.818;8.976;2022-10-17T09:13:35;5.20;;;2.10;;
15936;SDS011;9163;48.818;8.976;2022-10-17T09:16:16;4.67;;;2.07;;
15936;SDS011;9163;48.818;8.976;2022-10-17T09:19:06;4.67;;;2.10;;
15936;SDS011;9163;48.818;8.976;2022-10-17T09:21:38;3.23;;;2.10;;
15936;SDS011;9163;48.818;8.976;2022-10-17T09:24:10;3.43;;;1.97;;
15936;SDS011;9163;48.818;8.976;2022-10-17T09:26:43;4.27;;;1.90;;
15936;SDS011;9163;48.818;8.976;2022-10-17T09:29:13;3.87;;;1.80;;
15936;SDS011;9163;48.818;8.976;2022-10-17T09:31:46;2.63;;;1.70;;
15936;SDS011;9163;48.818;8.976;2022-10-17T09:34:20;5.30;;;2.03;;
15936;SDS011;9163;48.818;8.976;2022-10-17T09:36:48;3.57;;;1.90;;
15936;SDS011;9163;48.818;8.976;2022-10-17T09:39:17;3.93;;;1.87;;
15936;SDS011;9163;48.818;8.976;2022-10-17T09:41:46;5.10;;;2.07;;
15936;SDS011;9163;48.818;8.976;2022-10-17T09:44:17;3.00;;;1.90;;
15936;SDS011;9163;48.818;8.976;2022-10-17T09:49:38;4.23;;;1.80;;
15936;SDS011;9163;48.818;8.976;2022-10-17T09:52:08;4.43;;;1.87;;
15936;SDS011;9163;48.818;8.976;2022-10-17T09:54:41;4.28;;;1.73;;
15936;SDS011;9163;48.818;8.976;2022-10-17T09:57:11;5.47;;;1.80;;
15936;SDS011;9163;48.818;8.976;2022-10-17T09:59:40;4.82;;;1.92;;
15936;SDS011;9163;48.818;8.976;2022-10-17T10:02:14;3.28;;;1.40;;
15936;SDS011;9163;48.818;8.976;2022-10-17T10:04:58;5.30;;;1.60;;
15936;SDS011;9163;48.818;8.976;2022-10-17T10:07:28;4.90;;;1.80;;
15936;SDS011;9163;48.818;8.976;2022-10-17T10:09:56;1.70;;;1.50;;
15936;SDS011;9163;48.818;8.976;2022-10-17T10:12:25;3.17;;;1.50;;
15936;SDS011;9163;48.818;8.976;2022-10-17T10:14:54;3.25;;;1.70;;
15936;SDS011;9163;48.818;8.976;2022-10-17T10:17:26;2.10;;;1.70;;
15936;SDS011;9163;48.818;8.976;2022-10-17T10:20:05;3.08;;;1.85;;
15936;SDS011;9163;48.818;8.976;2022-10-17T10:23:03;4.30;;;1.85;;
15936;SDS011;9163;48.818;8.976;2022-10-17T10:25:36;3.63;;;1.60;;
15936;SDS011;9163;48.818;8.976;2022-10-17T10:28:08;2.90;;;1.58;;
15936;SDS011;9163;48.818;8.976;2022-10-17T10:30:36;2.40;;;1.42;;
15936;SDS011;9163;48.818;8.976;2022-10-17T10:33:03;3.60;;;1.70;;
15936;SDS011;9163;48.818;8.976;2022-10-17T10:35:33;2.30;;;1.70;;
15936;SDS011;9163;48.818;8.976;2022-10-17T10:38:02;3.83;;;1.45;;
15936;SDS011;9163;48.818;8.976;2022-10-17T10:40:35;3.72;;;1.60;;
15936;SDS011;9163;48.818;8.976;2022-10-17T10:43:18;2.00;;;1.70;;
15936;SDS011;9163;48.818;8.976;2022-10-17T10:45:48;3.88;;;1.48;;
15936;SDS011;9163;48.818;8.976;2022-10-17T10:48:18;5.32;;;1.48;;
15936;SDS011;9163;48.818;8.976;2022-10-17T10:50:49;2.72;;;1.95;;
15936;SDS011;9163;48.818;8.976;2022-10-17T10:53:24;3.05;;;1.60;;
15936;SDS011;9163;48.818;8.976;2022-10-17T10:56:03;5.32;;;1.90;;
15936;SDS011;9163;48.818;8.976;2022-10-17T10:58:38;3.35;;;1.52;;
15936;SDS011;9163;48.818;8.976;2022-10-17T11:01:15;5.47;;;1.85;;
15936;SDS011;9163;48.818;8.976;2022-10-17T11:04:03;4.82;;;1.75;;
15936;SDS011;9163;48.818;8.976;2022-10-17T11:06:40;5.78;;;1.80;;
15936;SDS011;9163;48.818;8.976;2022-10-17T11:09:15;4.25;;;1.65;;
15936;SDS011;9163;48.818;8.976;2022-10-17T11:11:52;3.35;;;1.85;;
15936;SDS011;9163;48.818;8.976;2022-10-17T11:14:27;6.30;;;1.85;;
15936;SDS011;9163;48.818;8.976;2022-10-17T11:17:02;3.53;;;1.77;;
15936;SDS011;9163;48.818;8.976;2022-10-17T11:19:36;3.88;;;1.83;;
15936;SDS011;9163;48.818;8.976;2022-10-17T11:22:12;1.63;;;1.40;;
15936;SDS011;9163;48.818;8.976;2022-10-17T11:24:43;5.53;;;1.77;;
15936;SDS011;9163;48.818;8.976;2022-10-17T11:27:21;2.13;;;1.77;;
15936;SDS011;9163;48.818;8.976;2022-10-17T11:29:49;3.35;;;1.80;;
15936;SDS011;9163;48.818;8.976;2022-10-17T11:32:18;3.30;;;1.70;;
15936;SDS011;9163;48.818;8.976;2022-10-17T11:34:50;4.22;;;1.80;;
15936;SDS011;9163;48.818;8.976;2022-10-17T11:37:22;3.08;;;1.50;;
15936;SDS011;9163;48.818;8.976;2022-10-17T11:39:52;4.38;;;1.95;;
15936;SDS011;9163;48.818;8.976;2022-10-17T11:42:24;3.25;;;1.65;;
15936;SDS011;9163;48.818;8.976;2022-10-17T11:44:54;2.25;;;1.50;;
15936;SDS011;9163;48.818;8.976;2022-10-17T11:47:27;2.58;;;1.52;;
15936;SDS011;9163;48.818;8.976;2022-10-17T11:50:02;4.22;;;1.70;;
15936;SDS011;9163;48.818;8.976;2022-10-17T11:52:36;3.00;;;1.45;;
15936;SDS011;9163;48.818;8.976;2022-10-17T11:55:09;3.42;;;1.65;;
15936;SDS011;9163;48.818;8.976;2022-10-17T11:57:48;3.50;;;1.73;;
15936;SDS011;9163;48.818;8.976;2022-10-17T12:00:21;3.17;;;1.63;;
15936;SDS011;9163;48.818;8.976;2022-10-17T12:02:58;5.97;;;1.80;;
15936;SDS011;9163;48.818;8.976;2022-10-17T12:05:37;3.83;;;1.48;;
15936;SDS011;9163;48.818;8.976;2022-10-17T12:08:10;3.65;;;1.52;;
15936;SDS011;9163;48.818;8.976;2022-10-17T12:10:44;2.92;;;1.75;;
15936;SDS011;9163;48.818;8.976;2022-10-17T12:19:23;4.10;;;1.90;;
15936;SDS011;9163;48.818;8.976;2022-10-17T12:22:02;4.30;;;1.70;;
15936;SDS011;9163;48.818;8.976;2022-10-17T12:24:34;3.28;;;1.60;;
15936;SDS011;9163;48.818;8.976;2022-10-17T12:30:02;3.88;;;1.70;;
15936;SDS011;9163;48.818;8.976;2022-10-17T12:32:32;4.93;;;1.95;;
15936;SDS011;9163;48.818;8.976;2022-10-17T12:35:00;6.10;;;2.00;;
15936;SDS011;9163;48.818;8.976;2022-10-17T12:43:44;8.30;;;2.10;;
15936;SDS011;9163;48.818;8.976;2022-10-17T12:49:21;5.57;;;1.90;;
15936;SDS011;9163;48.818;8.976;2022-10-17T12:54:51;6.55;;;2.08;;
15936;SDS011;9163;48.818;8.976;2022-10-17T12:57:24;5.93;;;2.03;;
15936;SDS011;9163;48.818;8.976;2022-10-17T12:59:57;4.57;;;2.05;;
15936;SDS011;9163;48.818;8.976;2022-10-17T13:02:28;5.10;;;1.83;;
15936;SDS011;9163;48.818;8.976;2022-10-17T13:04:58;4.00;;;1.67;;
15936;SDS011;9163;48.818;8.976;2022-10-17T13:07:32;3.25;;;1.85;;
15936;SDS011;9163;48.818;8.976;2022-10-17T13:10:01;5.00;;;1.63;;
15936;SDS011;9163;48.818;8.976;2022-10-17T13:12:31;4.22;;;1.73;;
15936;SDS011;9163;48.818;8.976;2022-10-17T13:15:00;5.82;;;1.80;;
15936;SDS011;9163;48.818;8.976;2022-10-17T13:17:32;4.65;;;1.38;;
15936;SDS011;9163;48.818;8.976;2022-10-17T13:20:00;4.32;;;1.75;;
15936;SDS011;9163;48.818;8.976;2022-10-17T13:22:29;4.40;;;1.50;;
15936;SDS011;9163;48.818;8.976;2022-10-17T13:25:04;4.35;;;1.60;;
15936;SDS011;9163;48.818;8.976;2022-10-17T13:27:35;4.85;;;1.80;;
15936;SDS011;9163;48.818;8.976;2022-10-17T13:32:50;2.92;;;1.50;;
15936;SDS011;9163;48.818;8.976;2022-10-17T13:35:21;3.72;;;1.50;;
15936;SDS011;9163;48.818;8.976;2022-10-17T13:37:50;2.60;;;1.30;;
15936;SDS011;9163;48.818;8.976;2022-10-17T13:40:20;1.67;;;1.40;;
15936;SDS011;9163;48.818;8.976;2022-10-17T13:42:50;2.88;;;1.60;;
15936;SDS011;9163;48.818;8.976;2022-10-17T13:45:20;3.42;;;1.30;;
15936;SDS011;9163;48.818;8.976;2022-10-17T13:47:52;4.07;;;1.42;;
15936;SDS011;9163;48.818;8.976;2022-10-17T13:50:23;3.72;;;1.70;;
15936;SDS011;9163;48.818;8.976;2022-10-17T13:53:06;4.43;;;1.70;;
15936;SDS011;9163;48.818;8.976;2022-10-17T13:55:49;3.05;;;1.40;;
15936;SDS011;9163;48.818;8.976;2022-10-17T13:58:18;3.55;;;1.55;;
15936;SDS011;9163;48.818;8.976;2022-10-17T14:00:46;3.33;;;1.52;;
15936;SDS011;9163;48.818;8.976;2022-10-17T14:03:15;2.85;;;1.40;;
15936;SDS011;9163;48.818;8.976;2022-10-17T14:08:26;8.32;;;1.73;;
15936;SDS011;9163;48.818;8.976;2022-10-17T14:10:54;3.38;;;1.50;;
15936;SDS011;9163;48.818;8.976;2022-10-17T14:13:23;4.55;;;1.60;;
15936;SDS011;9163;48.818;8.976;2022-10-17T14:15:52;5.40;;;1.83;;
15936;SDS011;9163;48.818;8.976;2022-10-17T14:18:28;3.22;;;1.48;;
15936;SDS011;9163;48.818;8.976;2022-10-17T14:20:58;5.20;;;1.77;;
15936;SDS011;9163;48.818;8.976;2022-10-17T14:23:30;2.70;;;1.83;;
15936;SDS011;9163;48.818;8.976;2022-10-17T14:26:09;2.08;;;1.88;;
15936;SDS011;9163;48.818;8.976;2022-10-17T14:28:42;3.15;;;1.80;;
15936;SDS011;9163;48.818;8.976;2022-10-17T14:31:20;4.93;;;1.98;;
15936;SDS011;9163;48.818;8.976;2022-10-17T14:33:50;3.75;;;1.85;;
15936;SDS011;9163;48.818;8.976;2022-10-17T14:36:19;5.00;;;1.60;;
15936;SDS011;9163;48.818;8.976;2022-10-17T14:38:55;4.07;;;1.60;;
15936;SDS011;9163;48.818;8.976;2022-10-17T14:41:23;3.97;;;1.50;;
15936;SDS011;9163;48.818;8.976;2022-10-17T14:43:55;4.28;;;1.58;;
15936;SDS011;9163;48.818;8.976;2022-10-17T14:46:23;2.55;;;1.55;;
15936;SDS011;9163;48.818;8.976;2022-10-17T14:48:51;3.63;;;1.27;;
15936;SDS011;9163;48.818;8.976;2022-10-17T14:51:20;3.85;;;1.50;;
15936;SDS011;9163;48.818;8.976;2022-10-17T14:54:01;3.08;;;1.40;;
15936;SDS011;9163;48.818;8.976;2022-10-17T14:56:34;3.30;;;1.60;;
15936;SDS011;9163;48.818;8.976;2022-10-17T14:59:06;4.80;;;1.40;;
15936;SDS011;9163;48.818;8.976;2022-10-17T15:01:35;2.85;;;1.50;;
15936;SDS011;9163;48.818;8.976;2022-10-17T15:04:02;3.15;;;1.70;;
15936;SDS011;9163;48.818;8.976;2022-10-17T15:06:31;4.13;;;1.60;;
15936;SDS011;9163;48.818;8.976;2022-10-17T15:08:59;5.68;;;1.70;;
15936;SDS011;9163;48.818;8.976;2022-10-17T15:11:26;3.80;;;1.63;;
15936;SDS011;9163;48.818;8.976;2022-10-17T15:13:54;4.53;;;1.50;;
15936;SDS011;9163;48.818;8.976;2022-10-17T15:16:23;5.97;;;1.55;;
15936;SDS011;9163;48.818;8.976;2022-10-17T15:18:52;2.90;;;1.38;;
15936;SDS011;9163;48.818;8.976;2022-10-17T15:21:20;4.50;;;1.70;;
15936;SDS011;9163;48.818;8.976;2022-10-17T15:23:49;2.85;;;1.40;;
15936;SDS011;9163;48.818;8.976;2022-10-17T15:26:18;4.80;;;1.25;;
15936;SDS011;9163;48.818;8.976;2022-10-17T15:28:47;4.47;;;1.50;;
15936;SDS011;9163;48.818;8.976;2022-10-17T15:31:16;4.10;;;1.50;;
15936;SDS011;9163;48.818;8.976;2022-10-17T15:33:45;2.78;;;1.38;;
15936;SDS011;9163;48.818;8.976;2022-10-17T15:36:23;7.28;;;1.90;;
15936;SDS011;9163;48.818;8.976;2022-10-17T15:38:52;5.05;;;1.80;;
15936;SDS011;9163;48.818;8.976;2022-10-17T15:41:21;6.93;;;1.67;;
15936;SDS011;9163;48.818;8.976;2022-10-17T15:43:50;5.85;;;1.70;;
15936;SDS011;9163;48.818;8.976;2022-10-17T15:46:18;3.83;;;1.55;;
15936;SDS011;9163;48.818;8.976;2022-10-17T15:48:50;6.03;;;1.60;;
15936;SDS011;9163;48.818;8.976;2022-10-17T15:51:18;4.68;;;1.70;;
15936;SDS011;9163;48.818;8.976;2022-10-17T15:53:45;4.35;;;1.60;;